Météo Nord-Pas-de-Calais   La météo au plus près de chez vous

Station météorologique

Observations météo à Eyragues (13036)

13036003 17 m Dernier relevé à 14:48
31.7°C
Humidité 40 % Vent 11.5 km/h

Journée consultée

Lundi 31 Août 2026

Synthèse de la journée

Périodes de référence en UTC

Température maximale

31.7°C

à 14:48

06h 06h

Température minimale

17.3°C

à 07:18

18h 18h

Rafale maximale

29 km/h

à 12:54

00h 00h

Précipitations

0 mm

Cumul quotidien

06h 06h

Graphiques de la journée

Heure locale Réduire

Données détaillées

Relevés météo

Pas de 6 minutes Afficher les relevés infra-horaires
Relevés météo détaillés à Eyragues pour le Lundi 31 Août 2026
Heure Température °C Point de rosée °C Humidité % Vent moyen (raf.), km/h Précipitations mm
14:48 31.7 °C 16 °C 39 % 11 km/h (21 km/h) 0 mm0 mm
14:42 31.5 °C 16.3 °C 40 % 13 km/h (23 km/h) 0 mm0 mm
14:36 31.3 °C 16.1 °C 40 % 14 km/h (23 km/h) 0 mm0 mm
14:30 31.2 °C 16 °C 40 % 13 km/h (21 km/h) 0 mm0 mm
14:24 31.4 °C 15.8 °C 39 % 12 km/h (22 km/h) 0 mm0 mm
14:18 31.6 °C 16.4 °C 40 % 12 km/h (22 km/h) 0 mm0 mm
14:12 31.3 °C 15.7 °C 39 % 12 km/h (22 km/h) 0 mm0 mm
14:06 31.3 °C 15.7 °C 39 % 12 km/h (24 km/h) 0 mm0 mm
14:00 31 °C 16.2 °C 41 % 12 km/h (24 km/h) 0 mm0 mm
13:54 31.3 °C 16.5 °C 41 % 12 km/h (21 km/h) 0 mm0 mm
13:48 31.2 °C 16 °C 40 % 12 km/h (22 km/h) 0 mm0 mm
13:42 31.4 °C 16.2 °C 40 % 11 km/h (24 km/h) 0 mm0 mm
13:36 31.2 °C 16.8 °C 42 % 13 km/h (23 km/h) 0 mm0 mm
13:30 31 °C 16.2 °C 41 % 13 km/h (23 km/h) 0 mm0 mm
13:24 31 °C 16.6 °C 42 % 12 km/h (23 km/h) 0 mm0 mm
13:18 31 °C 17 °C 43 % 11 km/h (23 km/h) 0 mm0 mm
13:12 30.6 °C 16.6 °C 43 % 12 km/h (23 km/h) 0 mm0 mm
13:06 30.6 °C 16.6 °C 43 % 14 km/h (24 km/h) 0 mm0 mm
13:00 30.5 °C 16.1 °C 42 % 15 km/h (26 km/h) 0 mm0 mm
12:54 30.5 °C 16.1 °C 42 % 15 km/h (29 km/h) 0 mm0 mm
12:48 30.6 °C 16.6 °C 43 % 15 km/h (26 km/h) 0 mm0 mm
12:42 30.3 °C 16.7 °C 44 % 14 km/h (26 km/h) 0 mm0 mm
12:36 30.5 °C 16.5 °C 43 % 13 km/h (24 km/h) 0 mm0 mm
12:30 30.1 °C 17.2 °C 46 % 14 km/h (24 km/h) 0 mm0 mm
12:24 30.2 °C 17.3 °C 46 % 13 km/h (23 km/h) 0 mm0 mm
12:18 30.1 °C 17.5 °C 47 % 14 km/h (24 km/h) 0 mm0 mm
12:12 29.8 °C 16.9 °C 46 % 13 km/h (24 km/h) 0 mm0 mm
12:06 29.8 °C 17.6 °C 48 % 13 km/h (22 km/h) 0 mm0 mm
12:00 29.7 °C 17.5 °C 48 % 13 km/h (27 km/h) 0 mm0 mm
11:54 29.5 °C 18 °C 50 % 13 km/h (27 km/h) 0 mm0 mm
11:48 29.2 °C 17.7 °C 50 % 15 km/h (25 km/h) 0 mm0 mm
11:42 29.3 °C 17.8 °C 50 % 13 km/h (27 km/h) 0 mm0 mm
11:36 29.3 °C 18.4 °C 52 % 10 km/h (18 km/h) 0 mm0 mm
11:30 28.9 °C 17.4 °C 50 % 12 km/h (21 km/h) 0 mm0 mm
11:24 28.9 °C 18.1 °C 52 % 12 km/h (21 km/h) 0 mm0 mm
11:18 28.4 °C 17.6 °C 52 % 12 km/h (20 km/h) 0 mm0 mm
11:12 28.3 °C 18.1 °C 54 % 10 km/h (15 km/h) 0 mm0 mm
11:06 28.1 °C 17.9 °C 54 % 10 km/h (17 km/h) 0 mm0 mm
11:00 27.8 °C 17.6 °C 54 % 11 km/h (18 km/h) 0 mm0 mm
10:54 27.6 °C 17.5 °C 54 % 11 km/h (18 km/h) 0 mm0 mm
10:48 27.5 °C 17.7 °C 55 % 10 km/h (17 km/h) 0 mm0 mm
10:42 27.2 °C 17.7 °C 56 % 11 km/h (17 km/h) 0 mm0 mm
10:36 27.2 °C 17.7 °C 56 % 9 km/h (17 km/h) 0 mm0 mm
10:30 27.2 °C 17.7 °C 56 % 9 km/h (17 km/h) 0 mm0 mm
10:24 27 °C 18 °C 58 % 10 km/h (17 km/h) 0 mm0 mm
10:18 26.6 °C 17.7 °C 58 % 9 km/h (17 km/h) 0 mm0 mm
10:12 26.1 °C 17.7 °C 60 % 8 km/h (15 km/h) 0 mm0 mm
10:06 26.1 °C 17.7 °C 60 % 7 km/h (14 km/h) 0 mm0 mm
10:00 25.9 °C 17.8 °C 61 % 6 km/h (14 km/h) 0 mm0 mm
09:54 25.5 °C 17.9 °C 63 % 5 km/h (10 km/h) 0 mm0 mm
09:48 25.5 °C 17.9 °C 63 % 4 km/h (9 km/h) 0 mm0 mm
09:42 26.1 °C 18 °C 61 % 0 km/h (6 km/h) 0 mm0 mm
09:36 25.7 °C 17.9 °C 62 % 0 km/h (4 km/h) 0 mm0 mm
09:30 24.9 °C 17.6 °C 64 % 0 km/h (4 km/h) 0 mm0 mm
09:24 24.5 °C 17.2 °C 64 % 0 km/h (3 km/h) 0 mm0 mm
09:18 24.3 °C 17.3 °C 65 % 0 km/h (3 km/h) 0 mm0 mm
09:12 24 °C 17.5 °C 67 % 0 km/h (4 km/h) 0 mm0 mm
09:06 23.6 °C 17.3 °C 68 % 2 km/h (5 km/h) 0 mm0 mm
09:00 23.7 °C 17.4 °C 68 % 2 km/h (4 km/h) 0 mm0 mm
08:54 23.8 °C 18 °C 70 % 0 km/h (3 km/h) 0 mm0 mm
08:48 22.6 °C 17.7 °C 74 % 0 km/h (3 km/h) 0 mm0 mm
08:42 21.7 °C 17.5 °C 77 % 0 km/h (4 km/h) 0 mm0 mm
08:36 21.3 °C 17.3 °C 78 % 2 km/h (4 km/h) 0 mm0 mm
08:30 21.1 °C 17.3 °C 79 % 2 km/h (4 km/h) 0 mm0 mm
08:24 20.8 °C 17.2 °C 80 % 0 km/h (3 km/h) 0 mm0 mm
08:18 20.6 °C 17 °C 80 % 0 km/h (3 km/h) 0 mm0 mm
08:12 20.1 °C 16.9 °C 82 % 0 km/h (3 km/h) 0 mm0 mm
08:06 19.8 °C 16.8 °C 83 % 0 km/h (2 km/h) 0 mm0 mm
08:00 19.3 °C 16.5 °C 84 % 0 km/h (3 km/h) 0 mm0 mm
07:54 18.9 °C 16.3 °C 85 % 2 km/h (4 km/h) 0 mm0 mm
07:48 18.4 °C 16.6 °C 89 % 0 km/h (4 km/h) 0 mm0 mm
07:42 17.8 °C 16.3 °C 91 % 2 km/h (5 km/h) 0 mm0 mm
07:36 17.5 °C 16.2 °C 92 % 0 km/h (5 km/h) 0 mm0 mm
07:30 17.4 °C 15.9 °C 91 % 0 km/h (3 km/h) 0 mm0 mm
07:24 17.3 °C 15.8 °C 91 % 2 km/h (4 km/h) 0 mm0 mm
07:18 17.3 °C 15.8 °C 91 % 3 km/h (5 km/h) 0 mm0 mm
07:12 17.4 °C 15.7 °C 90 % 2 km/h (5 km/h) 0 mm0 mm
07:06 17.6 °C 16.1 °C 91 % 2 km/h (5 km/h) 0 mm0 mm
07:00 17.7 °C 16 °C 90 % 4 km/h (7 km/h) 0 mm0 mm
06:54 17.7 °C 16 °C 90 % 3 km/h (6 km/h) 0 mm0 mm
06:48 17.6 °C 15.9 °C 90 % 3 km/h (5 km/h) 0 mm0 mm
06:42 17.7 °C 16 °C 90 % 3 km/h (5 km/h) 0 mm0 mm
06:36 17.8 °C 16 °C 89 % 4 km/h (6 km/h) 0 mm0 mm
06:30 17.5 °C 16.2 °C 92 % 3 km/h (6 km/h) 0 mm0 mm
06:24 17.5 °C 16.4 °C 93 % 2 km/h (5 km/h) 0 mm0 mm
06:18 17.6 °C 16.3 °C 92 % 2 km/h (4 km/h) 0 mm0 mm
06:12 17.6 °C 16.5 °C 93 % 0 km/h (3 km/h) 0 mm0 mm
06:06 17.5 °C 16.2 °C 92 % 0 km/h (3 km/h) 0 mm0 mm
06:00 17.5 °C 16.2 °C 92 % 2 km/h (4 km/h) 0 mm0 mm
05:54 17.7 °C 16.4 °C 92 % 2 km/h (4 km/h) 0 mm0 mm
05:48 17.7 °C 16.4 °C 92 % 0 km/h (3 km/h) 0 mm0 mm
05:42 17.7 °C 16.4 °C 92 % 0 km/h (2 km/h) 0 mm0 mm
05:36 17.8 °C 16.5 °C 92 % 0 km/h (2 km/h) 0 mm0 mm
05:30 17.8 °C 16.5 °C 92 % 0 km/h (2 km/h) 0 mm0 mm
05:24 17.9 °C 16.6 °C 92 % 0 km/h (2 km/h) 0 mm0 mm
05:18 18 °C 16.5 °C 91 % 0 km/h (2 km/h) 0 mm0 mm
05:12 18 °C 16.5 °C 91 % 0 km/h (4 km/h) 0 mm0 mm
05:06 18 °C 16.5 °C 91 % 3 km/h (5 km/h) 0 mm0 mm
05:00 18.1 °C 16.6 °C 91 % 3 km/h (5 km/h) 0 mm0 mm
04:54 18.2 °C 16.7 °C 91 % 2 km/h (3 km/h) 0 mm0 mm
04:48 18.2 °C 16.7 °C 91 % 2 km/h (3 km/h) 0 mm0 mm
04:42 18.3 °C 16.8 °C 91 % 0 km/h (3 km/h) 0 mm0 mm
04:36 18.3 °C 16.6 °C 90 % 0 km/h (3 km/h) 0 mm0 mm
04:30 18.3 °C 16.6 °C 90 % 0 km/h (3 km/h) 0 mm0 mm
04:24 18.4 °C 16.7 °C 90 % 0 km/h (3 km/h) 0 mm0 mm
04:18 18.4 °C 16.7 °C 90 % 0 km/h (0 km/h) 0 mm0 mm
04:12 18.5 °C 16.7 °C 89 % 0 km/h (3 km/h) 0 mm0 mm
04:06 18.5 °C 16.7 °C 89 % 0 km/h (3 km/h) 0 mm0 mm
04:00 18.6 °C 16.7 °C 89 % 0 km/h (0 km/h) 0 mm0 mm
03:54 18.7 °C 16.7 °C 88 % 0 km/h (4 km/h) 0 mm0 mm
03:48 18.7 °C 16.7 °C 88 % 0 km/h (4 km/h) 0 mm0 mm
03:42 18.7 °C 16.8 °C 89 % 0 km/h (3 km/h) 0 mm0 mm
03:36 18.7 °C 16.7 °C 88 % 0 km/h (4 km/h) 0 mm0 mm
03:30 18.9 °C 16.9 °C 88 % 0 km/h (3 km/h) 0 mm0 mm
03:24 18.9 °C 16.9 °C 88 % 0 km/h (2 km/h) 0 mm0 mm
03:18 19.1 °C 16.9 °C 87 % 0 km/h (3 km/h) 0 mm0 mm
03:12 19.1 °C 16.9 °C 87 % 0 km/h (3 km/h) 0 mm0 mm
03:06 19.3 °C 17.1 °C 87 % 0 km/h (4 km/h) 0 mm0 mm
03:00 19.3 °C 16.7 °C 85 % 2 km/h (4 km/h) 0 mm0 mm
02:54 19.1 °C 16.9 °C 87 % 0 km/h (3 km/h) 0 mm0 mm
02:48 19.1 °C 16.9 °C 87 % 0 km/h (3 km/h) 0 mm0 mm
02:42 19.2 °C 16.8 °C 86 % 0 km/h (3 km/h) 0 mm0 mm
02:36 19.2 °C 16.8 °C 86 % 0 km/h (3 km/h) 0 mm0 mm
02:30 19.4 °C 17 °C 86 % 0 km/h (3 km/h) 0 mm0 mm
02:24 19.6 °C 17 °C 85 % 2 km/h (4 km/h) 0 mm0 mm
02:18 19.7 °C 16.9 °C 84 % 3 km/h (4 km/h) 0 mm0 mm
02:12 19.7 °C 16.7 °C 83 % 2 km/h (4 km/h) 0 mm0 mm
02:06 19.9 °C 16.7 °C 82 % 0 km/h (3 km/h) 0 mm0 mm
02:00 20.1 °C 16.9 °C 82 % 3 km/h (4 km/h) 0 mm0 mm
01:54 20.2 °C 16.6 °C 80 % 2 km/h (4 km/h) 0 mm0 mm
01:48 20.4 °C 17 °C 81 % 2 km/h (5 km/h) 0 mm0 mm
01:42 20.7 °C 16.9 °C 79 % 2 km/h (5 km/h) 0 mm0 mm
01:36 20.7 °C 16.7 °C 78 % 2 km/h (4 km/h) 0 mm0 mm
01:30 20.9 °C 16.7 °C 77 % 4 km/h (8 km/h) 0 mm0 mm
01:24 21.3 °C 16.7 °C 75 % 6 km/h (8 km/h) 0 mm0 mm
01:18 21.3 °C 16.7 °C 75 % 5 km/h (7 km/h) 0 mm0 mm
01:12 21.2 °C 16.8 °C 76 % 5 km/h (8 km/h) 0 mm0 mm
01:06 21 °C 16.8 °C 77 % 6 km/h (8 km/h) 0 mm0 mm
01:00 20.8 °C 16.6 °C 77 % 5 km/h (7 km/h) 0 mm0 mm
00:54 20.6 °C 16.6 °C 78 % 2 km/h (5 km/h) 0 mm0 mm
00:48 20.9 °C 17.1 °C 79 % 0 km/h (3 km/h) 0 mm0 mm
00:42 21 °C 16.6 °C 76 % 2 km/h (5 km/h) 0 mm0 mm
00:36 21.1 °C 16.7 °C 76 % 3 km/h (6 km/h) 0 mm0 mm
00:30 21.1 °C 16.7 °C 76 % 4 km/h (6 km/h) 0 mm0 mm
00:24 20.9 °C 16.5 °C 76 % 3 km/h (5 km/h) 0 mm0 mm
00:18 20.9 °C 16.7 °C 77 % 2 km/h (4 km/h) 0 mm0 mm
00:12 21.1 °C 16.5 °C 75 % 2 km/h (4 km/h) 0 mm0 mm
00:06 21.3 °C 16.5 °C 74 % 2 km/h (4 km/h) 0 mm0 mm
00:00 21.6 °C 16.3 °C 72 % 2 km/h (4 km/h) 0 mm0 mm

Données via Météo-France

Relevés météo à Eyragues

Cette page rassemble les observations de la station de Eyragues : température, humidité, vent, précipitations et pression atmosphérique. Les graphiques facilitent le suivi de la journée, tandis que le tableau donne accès aux mesures horaires et infra-horaires disponibles.

Pour replacer ces mesures dans leur contexte, consultez la climatologie de Eyragues ainsi que ses normales et records. Retrouvez aussi la carte des observations météo en temps réel.